Time;durP1;ratioP1;P1;durP2;ratioP2;P2;SDS_P1;SDS_P2;PMS_P1;PMS_P2;Temp;Humidity;BMP_temperature;BMP_pressure;BME280_temperature;BME280_humidity;BME280_pressure;Samples;Min_cycle;Max_cycle;Signal;HPM_P1;HPM_P2
2023/05/31 00:03:15;;;;;;;8.20;3.63;;;;;;;;;;10615452;27;20080;-78
2023/05/31 00:08:16;;;;;;;9.13;4.17;;;;;;;;;;10615826;27;20490;-79
2023/05/31 00:13:17;;;;;;;6.47;3.10;;;;;;;;;;10615780;27;20039;-79
2023/05/31 00:18:18;;;;;;;6.33;3.53;;;;;;;;;;10617152;27;20035;-80
2023/05/31 00:23:19;;;;;;;6.80;3.00;;;;;;;;;;10627463;27;20111;-79
2023/05/31 00:28:20;;;;;;;8.67;3.80;;;;;;;;;;10615459;27;20015;-79
2023/05/31 00:33:21;;;;;;;6.87;3.23;;;;;;;;;;10626779;27;20580;-78
2023/05/31 00:38:22;;;;;;;5.23;3.07;;;;;;;;;;10622996;27;20039;-79
2023/05/31 00:43:23;;;;;;;10.03;3.93;;;;;;;;;;10625382;27;20023;-78
2023/05/31 00:48:25;;;;;;;6.17;3.20;;;;;;;;;;10613678;27;20115;-77
2023/05/31 00:53:26;;;;;;;9.00;3.50;;;;;;;;;;10616930;27;20049;-78
2023/05/31 00:58:27;;;;;;;16.07;4.77;;;;;;;;;;10613571;27;20462;-77
2023/05/31 01:03:28;;;;;;;9.73;4.03;;;;;;;;;;10613840;27;20061;-77
2023/05/31 01:08:29;;;;;;;8.37;4.27;;;;;;;;;;10613624;27;20045;-77
2023/05/31 01:13:36;;;;;;;8.53;4.30;;;;;;;;;;10613276;27;20491;-80
2023/05/31 01:18:54;;;;;;;9.17;3.50;;;;;;;;;;10616844;27;20030;-80
2023/05/31 01:24:16;;;;;;;10.43;4.00;;;;;;;;;;10614308;27;20107;-80
2023/05/31 01:29:23;;;;;;;9.23;4.30;;;;;;;;;;10612901;27;20027;-80
2023/05/31 01:34:24;;;;;;;10.37;5.10;;;;;;;;;;10612789;27;20126;-80
2023/05/31 01:39:26;;;;;;;7.70;4.13;;;;;;;;;;10612465;27;20031;-81
2023/05/31 01:44:27;;;;;;;7.10;3.60;;;;;;;;;;10612032;28;20084;-79
2023/05/31 01:49:28;;;;;;;10.73;4.53;;;;;;;;;;10618530;27;20034;-79
2023/05/31 01:54:29;;;;;;;11.87;4.97;;;;;;;;;;10611967;28;20582;-82
2023/05/31 01:59:31;;;;;;;8.67;4.47;;;;;;;;;;10612295;28;20035;-79
2023/05/31 02:04:32;;;;;;;8.60;4.23;;;;;;;;;;10612410;27;20572;-81
2023/05/31 02:09:33;;;;;;;9.27;4.20;;;;;;;;;;10619075;27;20039;-80
2023/05/31 02:14:34;;;;;;;12.03;5.23;;;;;;;;;;10611926;28;20744;-78
2023/05/31 02:19:36;;;;;;;10.50;5.27;;;;;;;;;;10622603;27;20031;-77
2023/05/31 02:24:37;;;;;;;10.67;5.17;;;;;;;;;;10614607;27;20037;-77
2023/05/31 02:29:39;;;;;;;12.80;5.17;;;;;;;;;;10620362;27;20042;-79
2023/05/31 02:34:40;;;;;;;12.43;5.00;;;;;;;;;;10619336;27;20047;-79
2023/05/31 02:39:41;;;;;;;8.40;4.23;;;;;;;;;;10619637;27;20027;-80
2023/05/31 02:44:42;;;;;;;9.57;4.63;;;;;;;;;;10619278;27;20058;-80
2023/05/31 02:49:43;;;;;;;8.50;4.57;;;;;;;;;;10624816;27;20111;-81
2023/05/31 02:54:44;;;;;;;10.10;4.87;;;;;;;;;;10618301;27;20046;-80
2023/05/31 02:59:46;;;;;;;11.27;5.13;;;;;;;;;;10632835;27;20119;-81
2023/05/31 03:04:48;;;;;;;9.77;4.80;;;;;;;;;;10608862;27;20027;-79
2023/05/31 03:09:49;;;;;;;9.97;5.03;;;;;;;;;;10601546;27;20027;-80
2023/05/31 03:14:50;;;;;;;12.40;4.50;;;;;;;;;;10625462;27;20039;-79
2023/05/31 03:19:51;;;;;;;10.17;4.50;;;;;;;;;;10621257;27;20115;-81
2023/05/31 03:24:52;;;;;;;9.30;5.00;;;;;;;;;;10619382;27;20023;-78
2023/05/31 03:29:53;;;;;;;13.10;4.90;;;;;;;;;;10618137;27;20027;-77
2023/05/31 03:34:54;;;;;;;8.40;4.70;;;;;;;;;;10626677;27;20058;-78
2023/05/31 03:39:55;;;;;;;11.00;4.80;;;;;;;;;;10619895;27;20035;-79
2023/05/31 03:44:56;;;;;;;11.87;4.83;;;;;;;;;;10616570;27;20019;-79
2023/05/31 03:49:57;;;;;;;11.10;4.57;;;;;;;;;;10618795;27;20689;-78
2023/05/31 03:54:58;;;;;;;12.68;5.35;;;;;;;;;;10616419;27;20691;-78
2023/05/31 03:59:59;;;;;;;9.60;4.77;;;;;;;;;;10618794;27;20027;-78
2023/05/31 04:05:00;;;;;;;11.83;5.00;;;;;;;;;;10630036;27;20474;-78
2023/05/31 04:10:01;;;;;;;11.70;5.20;;;;;;;;;;10617577;27;20031;-79
2023/05/31 04:15:03;;;;;;;11.13;4.90;;;;;;;;;;10616176;27;20046;-78
2023/05/31 04:20:07;;;;;;;11.47;5.60;;;;;;;;;;10628517;27;20052;-79
2023/05/31 04:25:12;;;;;;;7.78;4.60;;;;;;;;;;10614693;27;20015;-81
2023/05/31 04:30:14;;;;;;;10.35;5.47;;;;;;;;;;10616062;27;20054;-78
2023/05/31 04:35:15;;;;;;;10.18;5.40;;;;;;;;;;10622362;27;20047;-79
2023/05/31 04:40:16;;;;;;;11.20;5.10;;;;;;;;;;10614713;27;20039;-77
2023/05/31 04:45:17;;;;;;;11.50;4.95;;;;;;;;;;10570165;27;20031;-80
2023/05/31 04:50:18;;;;;;;9.10;5.30;;;;;;;;;;10614605;27;20019;-80
2023/05/31 04:55:19;;;;;;;10.55;5.18;;;;;;;;;;10617128;27;20066;-80
2023/05/31 05:00:20;;;;;;;10.70;4.88;;;;;;;;;;10615200;27;20031;-77
2023/05/31 05:05:22;;;;;;;12.63;5.05;;;;;;;;;;10615762;27;20038;-77
2023/05/31 05:10:23;;;;;;;8.60;4.75;;;;;;;;;;10614900;27;20027;-78
2023/05/31 05:15:24;;;;;;;9.18;5.57;;;;;;;;;;10615646;27;20031;-77
2023/05/31 05:20:25;;;;;;;10.60;4.60;;;;;;;;;;10601589;27;20027;-79
2023/05/31 05:25:26;;;;;;;10.48;4.43;;;;;;;;;;10614606;27;20019;-78
2023/05/31 05:30:28;;;;;;;6.88;4.22;;;;;;;;;;10613920;27;20494;-78
2023/05/31 05:35:29;;;;;;;9.35;4.82;;;;;;;;;;10613904;27;20494;-77
2023/05/31 05:40:30;;;;;;;6.82;3.83;;;;;;;;;;10613939;28;20056;-78
2023/05/31 05:45:31;;;;;;;6.95;3.50;;;;;;;;;;10601335;28;20052;-77
2023/05/31 05:50:32;;;;;;;5.93;3.55;;;;;;;;;;10614312;28;20058;-79
2023/05/31 05:55:34;;;;;;;6.35;3.28;;;;;;;;;;10614434;28;20537;-80
2023/05/31 06:00:35;;;;;;;7.40;3.50;;;;;;;;;;10619006;27;20382;-78
2023/05/31 06:05:36;;;;;;;8.07;3.40;;;;;;;;;;10623130;27;20039;-80
2023/05/31 06:10:40;;;;;;;8.57;3.50;;;;;;;;;;10622338;27;20119;-77
2023/05/31 06:15:41;;;;;;;7.75;3.45;;;;;;;;;;10620879;27;20091;-80
2023/05/31 06:20:42;;;;;;;8.50;3.40;;;;;;;;;;10622160;27;20031;-80
2023/05/31 06:25:43;;;;;;;8.20;3.60;;;;;;;;;;10621018;27;20027;-79
2023/05/31 06:30:44;;;;;;;9.18;3.45;;;;;;;;;;10621888;27;20069;-78
2023/05/31 06:35:45;;;;;;;9.05;3.85;;;;;;;;;;10610638;27;20043;-79
2023/05/31 06:40:46;;;;;;;8.82;3.83;;;;;;;;;;10620550;27;20048;-79
2023/05/31 06:45:48;;;;;;;9.18;3.83;;;;;;;;;;10620523;27;20155;-77
2023/05/31 06:50:49;;;;;;;5.22;2.50;;;;;;;;;;10620167;27;20045;-80
2023/05/31 06:55:50;;;;;;;8.18;3.60;;;;;;;;;;10620995;27;20049;-78
2023/05/31 07:00:51;;;;;;;6.53;3.30;;;;;;;;;;10620262;27;20638;-80
2023/05/31 07:05:52;;;;;;;5.82;2.70;;;;;;;;;;10619745;27;20023;-79
2023/05/31 07:10:54;;;;;;;6.43;3.20;;;;;;;;;;10618706;27;20023;-81
2023/05/31 07:15:55;;;;;;;5.20;3.28;;;;;;;;;;10618368;27;20039;-81
2023/05/31 07:20:56;;;;;;;8.25;3.08;;;;;;;;;;10618390;27;20102;-80
2023/05/31 07:25:59;;;;;;;6.03;3.30;;;;;;;;;;10617876;27;20057;-78
2023/05/31 07:31:01;;;;;;;5.85;2.75;;;;;;;;;;10620204;27;20363;-79
2023/05/31 07:36:02;;;;;;;7.05;2.92;;;;;;;;;;10619014;27;20031;-79
2023/05/31 07:41:03;;;;;;;6.43;2.70;;;;;;;;;;10617131;27;20027;-80
2023/05/31 07:46:04;;;;;;;6.90;2.60;;;;;;;;;;10574193;27;20027;-79
2023/05/31 07:51:05;;;;;;;6.38;2.20;;;;;;;;;;10616952;27;20047;-79
2023/05/31 07:56:07;;;;;;;5.05;2.47;;;;;;;;;;10616372;27;20031;-80
2023/05/31 08:01:08;;;;;;;6.55;2.35;;;;;;;;;;10616395;27;20084;-79
2023/05/31 08:06:09;;;;;;;4.20;1.88;;;;;;;;;;10617381;27;20027;-78
2023/05/31 08:11:10;;;;;;;7.75;2.40;;;;;;;;;;10616832;27;20039;-80
2023/05/31 08:16:11;;;;;;;8.90;2.40;;;;;;;;;;10615010;27;20064;-78
2023/05/31 08:21:12;;;;;;;4.75;2.20;;;;;;;;;;10614780;27;20435;-78
2023/05/31 08:26:13;;;;;;;3.90;1.85;;;;;;;;;;10615822;27;20463;-79
2023/05/31 08:31:14;;;;;;;6.68;1.80;;;;;;;;;;10615082;27;20051;-80
2023/05/31 08:36:15;;;;;;;7.68;2.28;;;;;;;;;;10614886;27;20050;-80
2023/05/31 08:41:17;;;;;;;4.88;2.03;;;;;;;;;;10614212;27;20050;-78
2023/05/31 08:46:20;;;;;;;7.05;2.45;;;;;;;;;;10614130;27;20023;-78
2023/05/31 08:51:23;;;;;;;2.90;1.80;;;;;;;;;;10613830;27;20027;-81
2023/05/31 08:56:26;;;;;;;2.92;1.80;;;;;;;;;;10614060;27;20035;-79
2023/05/31 09:01:28;;;;;;;5.38;2.58;;;;;;;;;;10614271;27;20048;-81
2023/05/31 09:06:30;;;;;;;3.20;1.98;;;;;;;;;;10613426;27;20420;-80
2023/05/31 09:11:31;;;;;;;4.93;2.08;;;;;;;;;;10613916;27;20040;-78
2023/05/31 09:16:32;;;;;;;4.78;2.40;;;;;;;;;;10613148;27;20438;-79
2023/05/31 09:21:40;;;;;;;6.57;2.15;;;;;;;;;;10599921;27;20027;-81
2023/05/31 09:26:47;;;;;;;2.72;1.75;;;;;;;;;;10613099;27;20027;-79
2023/05/31 09:31:48;;;;;;;3.58;1.90;;;;;;;;;;10613435;27;20133;-78
2023/05/31 09:36:51;;;;;;;4.45;1.75;;;;;;;;;;10612313;27;20046;-81
2023/05/31 09:41:52;;;;;;;3.85;1.85;;;;;;;;;;10613309;28;20038;-78
2023/05/31 09:46:53;;;;;;;5.00;1.85;;;;;;;;;;10613259;28;20133;-78
2023/05/31 09:51:54;;;;;;;3.65;1.77;;;;;;;;;;10612810;28;20043;-80
2023/05/31 09:56:55;;;;;;;3.13;1.98;;;;;;;;;;10612476;28;20039;-78
2023/05/31 10:01:56;;;;;;;2.88;1.50;;;;;;;;;;10613069;28;20023;-78
2023/05/31 10:06:57;;;;;;;7.05;1.90;;;;;;;;;;10598286;28;20471;-80
2023/05/31 10:12:00;;;;;;;5.28;1.90;;;;;;;;;;10611917;28;20023;-79
2023/05/31 10:17:03;;;;;;;2.85;1.70;;;;;;;;;;10611671;28;20459;-80
2023/05/31 10:22:05;;;;;;;3.30;1.42;;;;;;;;;;10612161;28;20023;-80
2023/05/31 10:27:12;;;;;;;3.75;1.70;;;;;;;;;;10612075;28;20038;-81
2023/05/31 10:32:22;;;;;;;3.92;1.55;;;;;;;;;;10612170;27;20096;-80
2023/05/31 10:37:23;;;;;;;4.22;1.85;;;;;;;;;;10611217;28;20134;-80
2023/05/31 10:42:28;;;;;;;3.50;1.42;;;;;;;;;;10611565;28;20023;-78
2023/05/31 10:47:30;;;;;;;;;;;;;;;;;;10616742;27;20489;-80
2023/05/31 10:52:31;;;;;;;2.05;1.50;;;;;;;;;;10619407;27;20294;-79
2023/05/31 10:57:36;;;;;;;3.88;1.73;;;;;;;;;;10618827;27;20038;-79
2023/05/31 11:02:37;;;;;;;3.33;1.90;;;;;;;;;;10618534;27;20019;-78
2023/05/31 11:07:38;;;;;;;6.95;3.35;;;;;;;;;;10618629;27;20027;-80
2023/05/31 11:12:40;;;;;;;3.97;1.85;;;;;;;;;;10619086;27;20029;-78
2023/05/31 11:17:52;;;;;;;3.55;1.50;;;;;;;;;;10618380;27;20035;-79
2023/05/31 11:23:11;;;;;;;2.83;1.38;;;;;;;;;;10617787;27;20016;-80
2023/05/31 11:28:17;;;;;;;5.10;1.50;;;;;;;;;;10606122;27;20104;-77
2023/05/31 11:33:18;;;;;;;4.03;1.45;;;;;;;;;;10617434;27;20043;-80
2023/05/31 11:38:19;;;;;;;2.63;1.40;;;;;;;;;;10599016;27;20020;-79
2023/05/31 11:43:24;;;;;;;2.33;1.33;;;;;;;;;;10617546;27;20516;-79
2023/05/31 11:48:30;;;;;;;2.42;1.60;;;;;;;;;;10616691;27;20031;-81
2023/05/31 11:53:32;;;;;;;4.90;1.42;;;;;;;;;;10617217;27;20122;-80
2023/05/31 11:58:33;;;;;;;5.10;2.63;;;;;;;;;;10616520;27;20542;-81
2023/05/31 12:03:34;;;;;;;2.85;1.60;;;;;;;;;;10616382;27;20030;-80
2023/05/31 12:08:35;;;;;;;2.47;1.35;;;;;;;;;;10616074;27;20035;-79
2023/05/31 12:13:36;;;;;;;2.92;1.02;;;;;;;;;;10615539;27;20063;-78
2023/05/31 12:18:38;;;;;;;2.05;1.70;;;;;;;;;;10616012;27;20019;-78
2023/05/31 12:23:58;;;;;;;2.90;1.50;;;;;;;;;;10642206;27;20030;-81
2023/05/31 12:29:02;;;;;;;4.32;1.95;;;;;;;;;;10621085;27;20023;-84
2023/05/31 12:34:07;;;;;;;2.53;1.20;;;;;;;;;;10615346;27;20054;-78
2023/05/31 12:39:21;;;;;;;2.58;1.60;;;;;;;;;;10616060;27;20521;-80
2023/05/31 12:44:22;;;;;;;4.20;1.47;;;;;;;;;;10591729;27;20050;-79
2023/05/31 12:49:26;;;;;;;2.38;1.30;;;;;;;;;;10616437;27;20037;-79
2023/05/31 12:54:28;;;;;;;3.15;2.72;;;;;;;;;;10621885;27;20063;-78
2023/05/31 12:59:30;;;;;;;2.88;1.70;;;;;;;;;;10619206;27;20030;-79
2023/05/31 13:04:32;;;;;;;3.58;1.42;;;;;;;;;;10597434;27;20042;-81
2023/05/31 13:09:33;;;;;;;3.95;2.92;;;;;;;;;;10631597;27;20518;-82
2023/05/31 13:14:34;;;;;;;5.13;1.90;;;;;;;;;;10625273;27;20130;-79
2023/05/31 13:19:35;;;;;;;3.10;1.70;;;;;;;;;;10614772;27;20567;-79
2023/05/31 13:24:36;;;;;;;2.30;1.80;;;;;;;;;;10614295;27;20433;-78
2023/05/31 13:29:37;;;;;;;1.98;1.45;;;;;;;;;;10614219;27;20039;-78
2023/05/31 13:34:38;;;;;;;2.33;1.73;;;;;;;;;;10628546;27;20536;-79
2023/05/31 13:39:39;;;;;;;3.30;1.55;;;;;;;;;;10612892;27;20224;-78
2023/05/31 13:44:40;;;;;;;4.38;1.73;;;;;;;;;;10613650;27;20015;-80
2023/05/31 13:49:41;;;;;;;3.42;2.08;;;;;;;;;;10619625;27;20473;-79
2023/05/31 13:54:42;;;;;;;3.15;1.70;;;;;;;;;;10631981;27;20067;-80
2023/05/31 13:59:43;;;;;;;2.25;1.42;;;;;;;;;;10616401;27;20039;-80
2023/05/31 14:04:44;;;;;;;3.15;2.05;;;;;;;;;;10610203;27;20433;-78
2023/05/31 14:09:46;;;;;;;3.10;1.50;;;;;;;;;;10613816;27;20031;-79
2023/05/31 14:14:47;;;;;;;6.07;1.75;;;;;;;;;;10617797;27;20039;-79
2023/05/31 14:19:48;;;;;;;5.45;2.17;;;;;;;;;;10612521;27;20027;-79
2023/05/31 14:24:49;;;;;;;3.70;1.83;;;;;;;;;;10620585;27;20031;-78
2023/05/31 14:29:50;;;;;;;6.05;1.73;;;;;;;;;;10623108;27;20035;-80
2023/05/31 14:34:51;;;;;;;5.15;1.77;;;;;;;;;;10632837;27;20108;-79
2023/05/31 14:39:52;;;;;;;3.38;1.77;;;;;;;;;;10631386;27;20041;-79
2023/05/31 14:44:53;;;;;;;2.15;1.40;;;;;;;;;;10627804;27;20403;-79
2023/05/31 14:49:54;;;;;;;3.22;1.80;;;;;;;;;;10577704;27;20059;-78
2023/05/31 14:54:55;;;;;;;2.65;1.50;;;;;;;;;;10629103;27;20436;-80
2023/05/31 14:59:56;;;;;;;6.15;1.80;;;;;;;;;;10615024;27;20043;-79
2023/05/31 15:04:57;;;;;;;4.40;1.95;;;;;;;;;;10617492;27;20060;-78
2023/05/31 15:09:58;;;;;;;2.60;1.80;;;;;;;;;;10618822;27;20132;-78
2023/05/31 15:14:59;;;;;;;4.90;1.67;;;;;;;;;;10623901;27;20512;-77
2023/05/31 15:20:00;;;;;;;4.45;1.90;;;;;;;;;;10618303;27;20058;-79
2023/05/31 15:25:01;;;;;;;4.30;1.48;;;;;;;;;;10618191;27;20533;-76
2023/05/31 15:30:03;;;;;;;4.97;2.05;;;;;;;;;;10618393;27;20406;-79
2023/05/31 15:35:05;;;;;;;3.33;1.48;;;;;;;;;;10617441;27;20448;-78
2023/05/31 15:40:06;;;;;;;5.30;2.03;;;;;;;;;;10617587;27;20041;-78
2023/05/31 15:45:07;;;;;;;2.78;1.60;;;;;;;;;;10618138;27;20482;-77
2023/05/31 15:50:09;;;;;;;2.88;1.70;;;;;;;;;;10616905;27;20027;-79
2023/05/31 15:55:10;;;;;;;5.05;1.90;;;;;;;;;;10616798;27;20438;-79
2023/05/31 16:00:11;;;;;;;4.63;1.92;;;;;;;;;;10617188;27;20430;-77
2023/05/31 16:05:15;;;;;;;3.90;1.98;;;;;;;;;;10613931;27;20031;-78
2023/05/31 16:10:16;;;;;;;5.45;1.85;;;;;;;;;;10600135;27;20136;-79
2023/05/31 16:15:17;;;;;;;3.47;2.03;;;;;;;;;;10615754;27;20109;-78
2023/05/31 16:20:18;;;;;;;11.93;2.08;;;;;;;;;;10616742;27;20023;-78
2023/05/31 16:25:19;;;;;;;3.13;1.67;;;;;;;;;;10615597;27;20381;-77
2023/05/31 16:30:20;;;;;;;2.97;1.40;;;;;;;;;;10616719;27;20043;-77
2023/05/31 16:35:21;;;;;;;4.97;2.00;;;;;;;;;;10617548;27;20043;-78
2023/05/31 16:40:22;;;;;;;4.35;1.83;;;;;;;;;;10623990;27;20041;-78
2023/05/31 16:45:23;;;;;;;6.20;2.00;;;;;;;;;;10617301;27;20031;-79
2023/05/31 16:50:24;;;;;;;4.70;1.80;;;;;;;;;;10615381;27;20062;-79
2023/05/31 16:55:39;;;;;;;5.78;2.05;;;;;;;;;;10480878;28;20395;-79
2023/05/31 17:00:42;;;;;;;2.88;1.77;;;;;;;;;;10469861;28;20028;-78
2023/05/31 17:05:43;;;;;;;5.28;2.00;;;;;;;;;;10467108;28;20017;-78
2023/05/31 17:10:46;;;;;;;5.10;1.88;;;;;;;;;;10480723;28;20446;-80
2023/05/31 17:15:47;;;;;;;3.03;1.70;;;;;;;;;;10463383;28;20106;-78
2023/05/31 17:20:50;;;;;;;4.90;2.03;;;;;;;;;;10480609;28;20036;-79
2023/05/31 17:25:51;;;;;;;6.53;2.28;;;;;;;;;;10474924;28;20026;-78
2023/05/31 17:30:52;;;;;;;4.07;1.85;;;;;;;;;;10476381;28;20028;-80
2023/05/31 17:35:53;;;;;;;5.85;2.17;;;;;;;;;;10479094;28;20052;-78
2023/05/31 17:40:54;;;;;;;3.45;1.92;;;;;;;;;;10470456;28;20100;-79
2023/05/31 17:45:56;;;;;;;4.97;2.10;;;;;;;;;;10473120;28;20039;-79
2023/05/31 17:50:57;;;;;;;3.33;2.58;;;;;;;;;;10461792;28;20057;-78
2023/05/31 17:55:58;;;;;;;5.22;2.25;;;;;;;;;;10467793;28;20752;-78
2023/05/31 18:00:59;;;;;;;8.88;2.22;;;;;;;;;;10456040;28;20068;-79
2023/05/31 18:06:00;;;;;;;4.43;2.03;;;;;;;;;;10454627;28;20774;-79
2023/05/31 18:11:01;;;;;;;7.28;2.25;;;;;;;;;;10446131;28;20037;-78
2023/05/31 18:16:03;;;;;;;4.53;1.73;;;;;;;;;;10444825;28;20052;-78
2023/05/31 18:21:04;;;;;;;4.43;2.08;;;;;;;;;;10450913;28;20033;-79
2023/05/31 18:26:05;;;;;;;4.97;2.15;;;;;;;;;;10445090;28;20556;-78
2023/05/31 18:31:09;;;;;;;2.83;2.03;;;;;;;;;;10439939;28;20056;-80
2023/05/31 18:36:10;;;;;;;5.60;2.50;;;;;;;;;;10449869;28;20040;-81
2023/05/31 18:41:11;;;;;;;4.28;2.30;;;;;;;;;;10442806;28;20033;-79
2023/05/31 18:46:12;;;;;;;5.15;2.15;;;;;;;;;;10428763;28;20024;-79
2023/05/31 18:51:13;;;;;;;4.03;2.47;;;;;;;;;;10425570;28;20136;-78
2023/05/31 18:56:15;;;;;;;4.43;2.45;;;;;;;;;;10428486;28;20112;-78
2023/05/31 19:01:16;;;;;;;6.25;2.78;;;;;;;;;;10422546;28;20437;-78
2023/05/31 19:06:17;;;;;;;4.80;2.50;;;;;;;;;;10425509;28;20119;-78
2023/05/31 19:11:18;;;;;;;5.75;2.70;;;;;;;;;;10407737;28;20382;-78
2023/05/31 19:16:19;;;;;;;4.25;2.70;;;;;;;;;;10412229;28;20025;-80
2023/05/31 19:21:20;;;;;;;9.23;2.80;;;;;;;;;;10447734;28;20025;-78
2023/05/31 19:26:21;;;;;;;6.43;2.90;;;;;;;;;;10441476;28;20028;-79
2023/05/31 19:31:22;;;;;;;6.68;2.90;;;;;;;;;;10425020;28;20033;-77
2023/05/31 19:36:24;;;;;;;7.75;2.70;;;;;;;;;;10447632;28;20370;-77
2023/05/31 19:41:25;;;;;;;5.30;2.97;;;;;;;;;;10407910;28;20037;-78
2023/05/31 19:46:26;;;;;;;6.47;3.50;;;;;;;;;;10425194;28;20028;-78
2023/05/31 19:51:28;;;;;;;4.85;3.30;;;;;;;;;;10439434;28;20461;-77
2023/05/31 19:56:29;;;;;;;7.25;3.30;;;;;;;;;;10438594;28;20079;-79
2023/05/31 20:01:30;;;;;;;4.72;2.75;;;;;;;;;;10416671;28;20021;-80
2023/05/31 20:06:31;;;;;;;10.18;2.83;;;;;;;;;;10443305;28;20432;-77
2023/05/31 20:11:34;;;;;;;3.85;2.47;;;;;;;;;;10401467;28;20042;-79
2023/05/31 20:16:35;;;;;;;5.20;2.80;;;;;;;;;;10434075;28;20017;-80
2023/05/31 20:21:36;;;;;;;5.35;3.03;;;;;;;;;;10436681;28;20459;-78
2023/05/31 20:26:37;;;;;;;4.53;2.80;;;;;;;;;;10440650;28;20041;-78
2023/05/31 20:31:38;;;;;;;6.43;2.70;;;;;;;;;;10441316;28;20102;-78
2023/05/31 20:36:41;;;;;;;6.80;3.22;;;;;;;;;;10445330;28;20066;-77
2023/05/31 20:41:42;;;;;;;6.43;3.15;;;;;;;;;;10421635;28;20527;-79
2023/05/31 20:46:43;;;;;;;6.90;3.17;;;;;;;;;;10444498;28;20025;-79
2023/05/31 20:51:44;;;;;;;10.90;3.83;;;;;;;;;;10444985;28;20052;-79
2023/05/31 20:56:45;;;;;;;6.53;3.97;;;;;;;;;;10423590;28;20025;-77
2023/05/31 21:01:46;;;;;;;6.72;3.28;;;;;;;;;;10443430;28;20033;-78
2023/05/31 21:06:47;;;;;;;7.90;4.13;;;;;;;;;;10444707;28;20036;-79
2023/05/31 21:11:49;;;;;;;7.75;4.68;;;;;;;;;;10421355;28;20051;-78
2023/05/31 21:16:54;;;;;;;11.55;5.45;;;;;;;;;;10441061;28;20152;-78
2023/05/31 21:21:55;;;;;;;15.80;6.40;;;;;;;;;;10421038;28;20040;-78
2023/05/31 21:26:56;;;;;;;10.30;5.38;;;;;;;;;;10435522;28;20469;-79
2023/05/31 21:31:57;;;;;;;11.18;4.53;;;;;;;;;;10443464;28;20076;-78
2023/05/31 21:36:58;;;;;;;7.97;4.03;;;;;;;;;;10429585;28;20033;-78
2023/05/31 21:41:59;;;;;;;11.98;4.28;;;;;;;;;;10422633;28;20140;-78
2023/05/31 21:47:00;;;;;;;12.05;4.00;;;;;;;;;;10447408;28;20567;-79
2023/05/31 21:52:01;;;;;;;7.65;4.32;;;;;;;;;;10444752;28;20076;-78
2023/05/31 21:57:02;;;;;;;6.95;3.92;;;;;;;;;;10445171;28;20041;-79
2023/05/31 22:02:03;;;;;;;8.10;3.90;;;;;;;;;;10437283;28;20033;-78
2023/05/31 22:07:04;;;;;;;8.63;4.05;;;;;;;;;;10448615;28;20098;-77
2023/05/31 22:12:05;;;;;;;7.03;4.03;;;;;;;;;;10450267;28;20037;-79
2023/05/31 22:17:07;;;;;;;8.73;3.65;;;;;;;;;;10442314;28;20041;-78
2023/05/31 22:22:09;;;;;;;10.50;4.47;;;;;;;;;;10443106;28;20060;-80
2023/05/31 22:27:10;;;;;;;11.27;4.22;;;;;;;;;;10442900;28;20029;-78
2023/05/31 22:32:11;;;;;;;9.35;3.97;;;;;;;;;;10449734;28;20036;-78
2023/05/31 22:37:12;;;;;;;11.38;4.38;;;;;;;;;;10436819;28;20137;-78
2023/05/31 22:42:13;;;;;;;7.82;3.90;;;;;;;;;;10419221;28;20030;-78
2023/05/31 22:47:14;;;;;;;8.18;4.00;;;;;;;;;;10441073;28;20033;-79
2023/05/31 22:52:20;;;;;;;10.35;4.20;;;;;;;;;;10439142;28;20089;-78
2023/05/31 22:57:21;;;;;;;9.63;4.38;;;;;;;;;;10437239;28;20035;-79
2023/05/31 23:02:22;;;;;;;10.82;4.65;;;;;;;;;;10435905;28;20051;-77
2023/05/31 23:07:24;;;;;;;9.88;4.53;;;;;;;;;;10444277;28;20693;-79
2023/05/31 23:12:25;;;;;;;9.18;4.60;;;;;;;;;;10448121;28;20734;-77
2023/05/31 23:17:29;;;;;;;12.80;4.72;;;;;;;;;;10447883;28;20401;-78
2023/05/31 23:22:30;;;;;;;10.32;5.03;;;;;;;;;;10444006;28;20036;-78
2023/05/31 23:27:31;;;;;;;10.70;4.50;;;;;;;;;;10447740;28;20033;-77
2023/05/31 23:32:32;;;;;;;7.93;4.30;;;;;;;;;;10439190;28;20103;-78
2023/05/31 23:37:33;;;;;;;15.77;6.50;;;;;;;;;;10434509;28;20029;-79
2023/05/31 23:42:35;;;;;;;23.05;9.48;;;;;;;;;;10447193;28;20032;-79
2023/05/31 23:47:36;;;;;;;19.63;8.73;;;;;;;;;;10446752;28;20039;-78
2023/05/31 23:52:37;;;;;;;25.75;12.45;;;;;;;;;;10437051;28;20735;-78
2023/05/31 23:57:38;;;;;;;32.92;15.90;;;;;;;;;;10436829;28;20029;-78
